Latest Weather Observations for Cobar Airport

IDN60801

Issued at 5:13 pm EDT Saturday 5 December 2020 (issued every 10 minutes, with the page automatically refreshed every 10 minutes)

About weather observations | Map of weather stations | Latest weather observations for NSW | Other Formats
Station Details ID: 048237 Name: COBAR AIRPORT AWS Lat: -31.54 Lon: 145.80 Height: 218.0 m
Data from the previous 72 hours. | See also: Recent months at Cobar Airport
Date/Time
EDT
Temp
°C
App
Temp
°C
Dew
Point
°C
Rel
Hum
%
Delta-T
°C
Wind Press
QNH
hPa
Press
MSL
hPa
Rain since
9am
mm
Dir  Spd
km/h
Gust
km/h
Spd
kts
Gust
kts
05/05:07pm 21.5 15.1 21.5 100 0.0 WSW 57 106 31 57 1002.6 1001.4 13.2
05/05:03pm 21.7 16.8 20.3 92 0.9 W 46 106 25 57 1003.8 1002.6 7.4
05/05:00pm 25.7 22.4 17.9 62 5.0 NW 32 106 17 57 1003.4 1002.2 4.2
05/04:59pm 26.4 23.7 17.5 58 5.6 NNW 28 106 15 57 1003.3 1002.1 4.2
05/04:58pm 30.1 29.3 18.5 49 7.6 N 20 83 11 45 1002.8 1001.6 4.2
05/04:30pm 31.5 31.1 18.8 46 8.3 NNE 19 24 10 13 999.1 997.9 4.2
05/04:00pm 31.2 28.4 18.2 46 8.5 N 30 39 16 21 1001.0 999.7 4.2
05/03:30pm 34.0 31.2 17.2 36 10.8 NNE 28 39 15 21 1000.6 999.3 4.2
05/03:28pm 33.7 31.7 17.4 37 10.5 NNE 24 35 13 19 1000.7 999.4 4.2
05/03:00pm 32.4 30.7 17.1 40 9.8 NNE 22 30 12 16 1002.7 1001.5 4.2
05/02:30pm 32.3 31.0 18.1 42 9.2 NE 22 33 12 18 1003.2 1002.0 4.2
05/02:00pm 31.3 29.9 17.9 44 8.7 NE 22 32 12 17 1004.1 1002.9 4.2
05/01:30pm 30.5 29.7 19.2 51 7.4 NE 22 28 12 15 1005.3 1004.0 4.2
05/01:00pm 29.6 28.8 18.1 50 7.4 NE 19 28 10 15 1006.4 1005.2 4.2
05/12:30pm 28.4 27.4 18.8 56 6.2 ENE 22 30 12 16 1006.5 1005.3 4.2
05/12:00pm 28.1 26.9 18.5 56 6.2 ENE 22 30 12 16 1006.8 1005.6 4.0
05/11:30am 28.5 27.5 18.9 56 6.2 ENE 22 30 12 16 1007.4 1006.2 4.0
05/11:00am 26.7 25.3 18.8 62 5.1 E 24 32 13 17 1008.0 1006.8 4.0
05/10:30am 24.4 26.0 20.7 80 2.4 E 13 20 7 11 1009.2 1008.0 4.0
05/10:07am 22.1 22.4 20.7 92 0.9 S 20 33 11 18 1010.3 1009.1 4.0
05/10:00am 21.6 22.5 20.9 96 0.5 SSE 17 33 9 18 1011.0 1009.8 4.0
05/09:48am 22.1 23.4 19.3 84 1.8 S 11 17 6 9 1009.5 1008.3 2.8
05/09:30am 23.0 22.8 18.5 76 2.9 NE 17 24 9 13 1009.0 1007.8 0.0
05/09:00am 23.5 23.6 18.4 73 3.2 NE 15 22 8 12 1009.9 1008.6 0.0
05/08:42am 23.3 22.2 17.3 69 3.7 NE 19 26 10 14 1008.9 1007.7 0.0
05/08:30am 24.7 21.8 15.1 55 5.8 NNW 24 32 13 17 1011.1 1009.9 0.0
05/08:00am 26.9 23.2 2.1 20 12.2 NW 11 20 6 11 1010.7 1009.5 0.0
05/07:30am 27.2 23.1 0.1 17 12.8 NNW 11 15 6 8 1010.0 1008.7 0.0
05/07:00am 26.6 21.5 -2.1 15 13.0 W 15 24 8 13 1009.5 1008.3 0.0
05/06:30am 26.4 22.7 -3.2 14 13.1 NNW 7 9 4 5 1008.4 1007.2 0.0
05/06:00am 26.5 21.0 -5.2 12 13.6 NE 15 19 8 10 1007.3 1006.1 0.0
05/05:30am 26.1 21.4 -5.5 12 13.4 ENE 11 15 6 8 1007.4 1006.2 0.0
05/05:00am 26.3 20.7 -6.5 11 13.7 NE 15 24 8 13 1007.8 1006.6 0.0
05/04:30am 26.9 20.4 -6.0 11 13.9 ENE 20 30 11 16 1007.5 1006.3 0.0
05/04:00am 25.8 20.2 -6.9 11 13.5 ENE 15 20 8 11 1007.6 1006.4 0.0
05/03:30am 25.5 19.8 -7.1 11 13.3 ENE 15 20 8 11 1008.3 1007.1 0.0
05/03:00am 25.2 20.3 -7.3 11 13.2 ENE 11 15 6 8 1008.7 1007.5 0.0
05/02:30am 25.4 20.5 -7.2 11 13.3 ENE 11 13 6 7 1009.2 1008.0 0.0
05/02:00am 25.6 20.3 -7.0 11 13.4 ENE 13 17 7 9 1009.5 1008.3 0.0
05/01:30am 22.8 19.1 -4.3 16 11.4 ENE 6 7 3 4 1010.1 1008.8 0.0
05/01:00am 22.8 20.4 -3.5 17 11.3 CALM 0 7 0 4 1009.9 1008.6 0.0
05/12:30am 23.1 20.6 -4.1 16 11.5 CALM 0 9 0 5 1010.0 1008.7 0.0
05/12:00am 23.2 19.4 -5.7 14 11.9 ESE 6 9 3 5 1010.3 1009.1 0.0
 
Date/Time
EDT
Temp
°C
App
Temp
°C
Dew
Point
°C
Rel
Hum
%
Delta-T
°C
Wind Press
QNH
hPa
Press
MSL
hPa
Rain since
9am
mm
Dir  Spd
km/h
Gust
km/h
Spd
kts
Gust
kts
04/11:30pm 23.6 20.1 -6.4 13 12.2 NNE 4 9 2 5 1010.6 1009.4 0.0
04/11:00pm 24.2 21.7 -4.0 15 12.1 CALM 0 0 0 0 1010.7 1009.5 0.0
04/10:30pm 26.2 21.6 -7.8 10 13.8 SE 9 11 5 6 1010.4 1009.2 0.0
04/10:00pm 27.2 22.7 -7.0 10 14.3 SE 9 11 5 6 1010.4 1009.2 0.0
04/09:30pm 27.7 23.6 -6.6 10 14.5 S 7 9 4 5 1010.6 1009.4 0.0
04/09:00pm 30.4 26.0 -6.0 9 15.9 SSE 9 13 5 7 1010.4 1009.2 0.0
04/08:30pm 32.0 27.6 -6.3 8 16.8 SSW 9 11 5 6 1010.1 1008.8 0.0
04/08:00pm 34.7 29.3 -4.4 8 18.1 SSW 15 20 8 11 1010.0 1008.7 0.0
04/07:30pm 35.9 30.8 -5.2 7 19.0 SSW 13 20 7 11 1009.7 1008.5 0.0
04/07:00pm 36.3 31.8 -3.2 8 18.9 S 11 24 6 13 1009.6 1008.4 0.0
04/06:30pm 36.5 31.3 -3.0 8 19.0 S 15 26 8 14 1009.9 1008.6 0.0
04/06:00pm 36.7 32.2 -2.9 8 19.1 SW 11 28 6 15 1010.0 1008.7 0.0
04/05:30pm 36.3 30.3 -1.6 9 18.6 SSW 20 30 11 16 1010.4 1009.2 0.0
04/05:00pm 36.7 31.7 -1.3 9 18.8 WSW 15 30 8 16 1010.8 1009.6 0.0
04/04:30pm 36.5 30.9 0.0 10 18.4 SW 19 35 10 19 1011.1 1009.9 0.0
04/04:00pm 37.5 33.2 0.7 10 18.9 W 13 48 7 26 1011.5 1010.3 0.0
04/03:30pm 37.3 31.2 0.6 10 18.7 SW 22 37 12 20 1011.9 1010.7 0.0
04/03:00pm 35.8 30.1 -0.5 10 18.1 SW 19 30 10 16 1012.5 1011.3 0.0
04/02:30pm 35.0 30.8 -1.1 10 17.7 SW 11 20 6 11 1012.9 1011.7 0.0
04/02:00pm 34.5 29.3 -0.2 11 17.2 SSW 17 24 9 13 1013.6 1012.4 0.0
04/01:30pm 34.7 30.0 1.1 12 17.0 SW 15 24 8 13 1014.1 1012.9 0.0
04/01:00pm 33.4 29.0 0.1 12 16.5 SSE 13 22 7 12 1014.8 1013.6 0.0
04/12:30pm 32.6 27.7 -0.5 12 16.1 SSW 15 22 8 12 1015.4 1014.2 0.0
04/12:00pm 31.6 27.1 -0.1 13 15.4 S 13 20 7 11 1015.8 1014.6 0.0
04/11:30am 31.7 27.5 -1.2 12 15.7 SSW 11 20 6 11 1016.3 1015.1 0.0
04/11:00am 31.1 26.8 -1.6 12 15.4 SE 11 24 6 13 1016.5 1015.3 0.0
04/10:30am 30.5 25.9 -1.0 13 15.0 SSE 13 20 7 11 1016.7 1015.5 0.0
04/10:00am 30.0 25.0 -1.4 13 14.8 SSE 15 26 8 14 1016.8 1015.6 0.0
04/09:34am 29.2 24.2 -1.0 14 14.2 SSE 15 26 8 14 1017.0 1015.8 0.0
04/09:30am 29.0 24.0 -1.2 14 14.2 SSE 15 20 8 11 1017.0 1015.8 0.0
04/09:00am 28.3 23.0 -0.8 15 13.7 SE 17 24 9 13 1017.3 1016.1 0.0
04/08:30am 26.8 21.8 -1.1 16 12.9 SE 15 22 8 12 1017.3 1016.1 0.0
04/08:00am 25.7 21.7 0.4 19 11.9 E 11 17 6 9 1017.1 1015.9 0.0
04/07:30am 22.9 19.4 1.3 24 10.1 SSE 9 13 5 7 1016.5 1015.3 0.0
04/07:00am 21.1 17.2 1.4 27 9.1 SSE 11 15 6 8 1016.1 1014.9 0.0
04/06:30am 20.1 16.3 2.0 30 8.4 SSE 11 15 6 8 1015.8 1014.6 0.0
04/06:00am 18.3 15.2 1.3 32 7.7 S 7 9 4 5 1015.7 1014.5 0.0
04/05:30am 20.2 16.4 1.6 29 8.6 SE 11 15 6 8 1015.6 1014.4 0.0
04/05:00am 19.9 16.9 1.8 30 8.4 SSE 7 9 4 5 1015.0 1013.8 0.0
04/04:30am 20.1 16.7 2.0 30 8.4 S 9 11 5 6 1015.2 1014.0 0.0
04/04:00am 20.3 16.6 2.2 30 8.5 SSE 11 13 6 7 1015.1 1013.9 0.0
04/03:30am 20.5 18.8 1.9 29 8.7 CALM 0 0 0 0 1015.1 1013.9 0.0
04/03:00am 21.3 18.9 2.1 28 9.0 ENE 4 7 2 4 1015.3 1014.1 0.0
04/02:30am 22.5 19.2 2.6 27 9.5 NE 9 11 5 6 1015.1 1013.9 0.0
04/02:00am 22.4 18.7 2.5 27 9.5 ENE 11 13 6 7 1015.6 1014.4 0.0
04/01:30am 22.8 19.8 2.3 26 9.8 ENE 7 9 4 5 1016.2 1015.0 0.0
04/01:00am 23.3 21.3 2.2 25 10.1 E 2 7 1 4 1016.6 1015.4 0.0
04/12:30am 24.8 23.2 2.3 23 10.9 CALM 0 0 0 0 1016.5 1015.3 0.0
04/12:00am 25.2 21.4 2.0 22 11.2 SSE 11 15 6 8 1016.6 1015.4 0.0
 
Date/Time
EDT
Temp
°C
App
Temp
°C
Dew
Point
°C
Rel
Hum
%
Delta-T
°C
Wind Press
QNH
hPa
Press
MSL
hPa
Rain since
9am
mm
Dir  Spd
km/h
Gust
km/h
Spd
kts
Gust
kts
03/11:30pm 25.7 21.2 2.4 22 11.4 SSE 15 19 8 10 1016.5 1015.3 0.0
03/11:00pm 26.1 21.4 3.4 23 11.3 S 17 20 9 11 1016.4 1015.2 0.0
03/10:30pm 26.6 22.0 3.8 23 11.5 S 17 22 9 12 1016.0 1014.8 0.0
03/10:00pm 26.9 23.2 4.6 24 11.4 SSW 13 17 7 9 1015.9 1014.7 0.0
03/09:30pm 26.4 23.5 4.8 25 11.1 S 9 11 5 6 1015.5 1014.3 0.0
03/09:00pm 26.3 23.8 4.7 25 11.0 SSE 7 9 4 5 1015.4 1014.2 0.0
03/08:30pm 28.4 26.0 5.3 23 12.1 SSE 7 9 4 5 1014.9 1013.7 0.0
03/08:00pm 29.6 26.8 5.0 21 12.9 SSE 9 11 5 6 1014.8 1013.6 0.0
03/07:30pm 30.3 27.6 5.6 21 13.1 SE 9 13 5 7 1014.9 1013.7 0.0
03/07:00pm 30.6 28.2 5.1 20 13.5 SSE 7 11 4 6 1015.0 1013.8 0.0
03/06:30pm 30.6 27.4 5.1 20 13.5 SE 11 15 6 8 1015.3 1014.1 0.0
03/06:00pm 30.6 27.8 5.1 20 13.5 E 9 15 5 8 1015.4 1014.2 0.0
03/05:30pm 30.3 27.4 4.9 20 13.3 SE 9 13 5 7 1015.7 1014.5 0.0
03/05:00pm 30.1 25.3 4.7 20 13.3 SSW 19 22 10 12 1016.4 1015.2 0.0
03/04:30pm 30.9 24.9 5.3 20 13.6 SSW 26 37 14 20 1016.8 1015.6 0.0
03/04:00pm 32.4 27.4 3.4 16 15.0 SW 19 24 10 13 1016.6 1015.4 0.0
03/03:30pm 32.6 27.6 3.5 16 15.1 SW 19 26 10 14 1016.7 1015.5 0.0
03/03:00pm 32.2 28.3 7.1 21 13.8 SSW 17 26 9 14 1016.8 1015.6 0.0
03/02:30pm 30.8 27.7 7.3 23 12.9 SSW 13 22 7 12 1017.1 1015.9 0.0
03/02:00pm 30.2 27.0 8.6 26 12.0 SW 15 24 8 13 1017.5 1016.3 0.0
03/01:30pm 28.8 25.3 7.4 26 11.6 SW 15 20 8 11 1017.8 1016.6 0.0
03/01:00pm 28.5 24.1 6.6 25 11.7 SW 19 24 10 13 1018.3 1017.1 0.0
03/12:30pm 27.7 23.2 7.0 27 11.1 E 20 32 11 17 1017.1 1015.9 0.0
03/12:17pm 26.8 23.5 6.2 27 10.8 SE 13 20 7 11 1016.8 1015.6 0.0
03/12:00pm 26.3 22.9 5.8 27 10.7 SW 13 19 7 10 1018.9 1017.8 0.0
03/11:30am 26.4 22.8 8.4 32 9.8 SSW 17 22 9 12 1018.7 1017.6 0.0
03/11:00am 26.0 24.0 8.5 33 9.5 ENE 9 13 5 7 1018.2 1017.0 0.0
03/10:30am 24.2 19.8 7.4 34 8.9 E 20 30 11 16 1017.8 1016.6 0.0
03/10:00am 22.7 18.5 3.8 29 9.3 ENE 15 20 8 11 1019.0 1017.9 0.0
03/09:30am 22.3 17.6 2.9 28 9.3 SE 17 22 9 12 1019.4 1018.3 0.0
03/09:00am 21.8 17.6 1.5 26 9.4 SSE 13 17 7 9 1020.4 1019.2 0.0
03/08:30am 21.3 16.8 -0.1 24 9.6 SW 13 22 7 12 1020.5 1019.3 0.0
03/08:00am 20.9 15.1 -0.4 24 9.5 S 20 28 11 15 1018.9 1017.8 0.0
03/07:30am 20.6 15.3 -0.7 24 9.4 SSE 17 22 9 12 1019.0 1017.9 0.0
03/07:00am 20.3 16.5 -0.9 24 9.3 SW 9 13 5 7 1019.8 1018.6 0.0
03/06:30am 19.9 16.5 -0.7 25 9.1 SE 7 11 4 6 1018.7 1017.6 0.0
03/06:00am 18.4 14.6 -0.9 27 8.3 SSW 9 11 5 6 1018.8 1017.7 0.0
03/05:30am 18.9 15.1 -0.5 27 8.5 SSW 9 11 5 6 1018.3 1017.1 0.0
03/05:00am 19.7 16.4 -0.9 25 9.0 SE 6 7 3 4 1018.0 1016.8 0.0
03/04:30am 20.2 16.8 -0.4 25 9.1 SSE 7 9 4 5 1017.6 1016.4 0.0
03/04:00am 20.4 17.0 -0.3 25 9.2 SSE 7 9 4 5 1017.6 1016.4 0.0
03/03:30am 20.7 16.5 -0.6 24 9.5 SSE 11 15 6 8 1017.5 1016.3 0.0
03/03:00am 21.0 16.9 -0.3 24 9.5 SSE 11 15 6 8 1017.6 1016.4 0.0
03/02:30am 21.1 16.7 0.3 25 9.4 S 13 17 7 9 1017.8 1016.6 0.0
03/02:00am 21.2 17.6 0.4 25 9.4 S 9 11 5 6 1018.2 1017.0 0.0
03/01:30am 20.9 18.2 0.2 25 9.4 S 4 7 2 4 1018.6 1017.5 0.0
03/01:00am 20.5 18.5 -0.2 25 9.2 CALM 0 6 0 3 1019.0 1017.9 0.0
03/12:30am 21.1 17.9 -0.2 24 9.6 S 6 7 3 4 1019.4 1018.3 0.0
03/12:00am 21.9 18.3 0.4 24 9.8 SSE 9 11 5 6 1019.8 1018.6 0.0
 
Date/Time
EDT
Temp
°C
App
Temp
°C
Dew
Point
°C
Rel
Hum
%
Delta-T
°C
Wind Press
QNH
hPa
Press
MSL
hPa
Rain since
9am
mm
Dir  Spd
km/h
Gust
km/h
Spd
kts
Gust
kts
02/11:30pm 22.2 18.1 0.1 23 10.1 SSE 11 13 6 7 1019.9 1018.7 0.0
02/11:00pm 22.5 18.1 0.4 23 10.1 SSE 13 17 7 9 1020.0 1018.8 0.0
02/10:30pm 22.7 17.5 -0.1 22 10.4 S 17 20 9 11 1020.2 1019.0 0.0
02/10:00pm 22.9 18.1 0.1 22 10.4 SE 15 20 8 11 1019.7 1018.5 0.0
02/09:30pm 23.1 17.4 -0.4 21 10.7 SSE 19 28 10 15 1019.7 1018.5 0.0
02/09:00pm 23.4 17.6 -0.1 21 10.7 SSE 20 30 11 16 1019.8 1018.6 0.0
02/08:30pm 23.7 17.7 -1.3 19 11.2 SSE 20 30 11 16 1019.4 1018.3 0.0
02/08:00pm 24.4 17.6 -2.2 17 11.8 SSE 24 32 13 17 1019.1 1018.0 0.0
02/07:30pm 25.4 18.1 -3.1 15 12.6 SSE 26 33 14 18 1018.7 1017.6 0.0
02/07:00pm 26.6 19.4 -2.1 15 13.0 S 26 35 14 19 1018.4 1017.3 0.0
02/06:30pm 26.8 19.9 -2.9 14 13.3 S 24 32 13 17 1018.3 1017.1 0.0
02/06:00pm 26.8 20.5 -3.9 13 13.5 S 20 33 11 18 1018.1 1016.9 0.0
02/05:30pm 26.5 19.9 -3.1 14 13.2 SSE 22 30 12 16 1017.9 1016.7 0.0

Other formats

Comma delimited format used in spreadsheet applications
http://www.bom.gov.au/fwo/IDN60801/IDN60801.94710.axf

JavaScript Object Notation format (JSON) in row-major order
http://www.bom.gov.au/fwo/IDN60801/IDN60801.94710.json

Data quality

Most of these data are generated automatically and are frequently updated. Quality checks on data are not normally performed. It is possible for incorrect values to appear. Refer to information at About Latest Weather Observations and please check the disclaimer before using these data.